sensor_id;sensor_type;location;lat;lon;timestamp;pressure;altitude;pressure_sealevel;temperature;humidity
74466;BME280;62916;50.044;15.938;2023-04-01T00:00:22;97460.23;;;20.10;54.95
74466;BME280;62916;50.044;15.938;2023-04-01T00:02:53;97456.31;;;20.08;55.12
74466;BME280;62916;50.044;15.938;2023-04-01T00:05:24;97455.07;;;20.07;55.05
74466;BME280;62916;50.044;15.938;2023-04-01T00:07:54;97449.24;;;20.05;55.18
74466;BME280;62916;50.044;15.938;2023-04-01T00:10:25;97447.40;;;20.05;55.14
74466;BME280;62916;50.044;15.938;2023-04-01T00:12:56;97447.20;;;20.04;55.13
74466;BME280;62916;50.044;15.938;2023-04-01T00:15:26;97446.52;;;20.03;55.14
74466;BME280;62916;50.044;15.938;2023-04-01T00:17:57;97445.98;;;20.01;55.15
74466;BME280;62916;50.044;15.938;2023-04-01T00:20:29;97444.95;;;19.99;55.25
74466;BME280;62916;50.044;15.938;2023-04-01T00:23:00;97443.38;;;19.97;55.20
74466;BME280;62916;50.044;15.938;2023-04-01T00:25:31;97442.29;;;19.96;55.18
74466;BME280;62916;50.044;15.938;2023-04-01T00:28:02;97442.41;;;19.94;55.19
74466;BME280;62916;50.044;15.938;2023-04-01T00:30:33;97444.70;;;19.93;55.18
74466;BME280;62916;50.044;15.938;2023-04-01T00:33:04;97444.80;;;19.91;55.26
74466;BME280;62916;50.044;15.938;2023-04-01T00:35:37;97438.17;;;19.87;55.25
74466;BME280;62916;50.044;15.938;2023-04-01T00:38:08;97441.34;;;19.85;55.46
74466;BME280;62916;50.044;15.938;2023-04-01T00:40:42;97444.80;;;19.86;55.32
74466;BME280;62916;50.044;15.938;2023-04-01T00:43:16;97439.61;;;19.84;55.40
74466;BME280;62916;50.044;15.938;2023-04-01T00:45:50;97440.28;;;19.82;55.48
74466;BME280;62916;50.044;15.938;2023-04-01T00:48:22;97436.94;;;19.80;55.50
74466;BME280;62916;50.044;15.938;2023-04-01T00:50:56;97433.73;;;19.78;55.42
74466;BME280;62916;50.044;15.938;2023-04-01T00:53:30;97431.46;;;19.78;55.62
74466;BME280;62916;50.044;15.938;2023-04-01T00:56:03;97432.20;;;19.78;55.68
74466;BME280;62916;50.044;15.938;2023-04-01T00:58:38;97432.56;;;19.77;55.68
74466;BME280;62916;50.044;15.938;2023-04-01T01:01:11;97427.63;;;19.76;55.73
74466;BME280;62916;50.044;15.938;2023-04-01T01:03:42;97427.10;;;19.74;55.65
74466;BME280;62916;50.044;15.938;2023-04-01T01:06:22;97425.42;;;19.72;55.75
74466;BME280;62916;50.044;15.938;2023-04-01T01:09:05;97425.73;;;19.69;55.83
74466;BME280;62916;50.044;15.938;2023-04-01T01:11:42;97422.97;;;19.68;55.86
74466;BME280;62916;50.044;15.938;2023-04-01T01:14:33;97423.24;;;19.67;55.85
74466;BME280;62916;50.044;15.938;2023-04-01T01:17:13;97417.48;;;19.62;55.95
74466;BME280;62916;50.044;15.938;2023-04-01T01:20:13;97416.45;;;19.60;55.85
74466;BME280;62916;50.044;15.938;2023-04-01T01:26:14;97417.63;;;19.61;56.12
74466;BME280;62916;50.044;15.938;2023-04-01T01:28:57;97420.67;;;19.61;56.10
74466;BME280;62916;50.044;15.938;2023-04-01T01:31:36;97419.55;;;19.58;56.18
74466;BME280;62916;50.044;15.938;2023-04-01T01:34:14;97423.06;;;19.60;56.18
74466;BME280;62916;50.044;15.938;2023-04-01T01:36:50;97427.31;;;19.61;56.11
74466;BME280;62916;50.044;15.938;2023-04-01T01:39:26;97424.66;;;19.60;56.20
74466;BME280;62916;50.044;15.938;2023-04-01T01:42:02;97428.63;;;19.59;56.03
74466;BME280;62916;50.044;15.938;2023-04-01T01:44:36;97428.23;;;19.57;56.09
74466;BME280;62916;50.044;15.938;2023-04-01T01:47:09;97424.02;;;19.55;56.34
74466;BME280;62916;50.044;15.938;2023-04-01T01:49:43;97423.52;;;19.55;56.23
74466;BME280;62916;50.044;15.938;2023-04-01T01:52:16;97421.88;;;19.53;56.16
74466;BME280;62916;50.044;15.938;2023-04-01T01:54:52;97423.20;;;19.52;56.13
74466;BME280;62916;50.044;15.938;2023-04-01T01:57:25;97424.34;;;19.50;56.29
74466;BME280;62916;50.044;15.938;2023-04-01T02:00:02;97425.04;;;19.49;56.28
74466;BME280;62916;50.044;15.938;2023-04-01T02:02:34;97427.23;;;19.48;56.23
74466;BME280;62916;50.044;15.938;2023-04-01T02:05:06;97425.14;;;19.48;56.18
74466;BME280;62916;50.044;15.938;2023-04-01T02:07:40;97422.77;;;19.47;56.22
74466;BME280;62916;50.044;15.938;2023-04-01T02:10:15;97425.36;;;19.45;56.18
74466;BME280;62916;50.044;15.938;2023-04-01T02:12:47;97422.63;;;19.45;56.31
74466;BME280;62916;50.044;15.938;2023-04-01T02:15:20;97423.90;;;19.44;56.41
74466;BME280;62916;50.044;15.938;2023-04-01T02:17:51;97426.83;;;19.43;56.31
74466;BME280;62916;50.044;15.938;2023-04-01T02:20:25;97423.98;;;19.42;56.35
74466;BME280;62916;50.044;15.938;2023-04-01T02:22:59;97427.70;;;19.40;56.38
74466;BME280;62916;50.044;15.938;2023-04-01T02:25:33;97427.61;;;19.40;56.29
74466;BME280;62916;50.044;15.938;2023-04-01T02:28:07;97423.64;;;19.34;56.30
74466;BME280;62916;50.044;15.938;2023-04-01T02:30:40;97428.73;;;19.37;56.42
74466;BME280;62916;50.044;15.938;2023-04-01T02:33:13;97428.12;;;19.36;56.27
74466;BME280;62916;50.044;15.938;2023-04-01T02:35:44;97429.91;;;19.34;56.39
74466;BME280;62916;50.044;15.938;2023-04-01T02:38:16;97437.08;;;19.32;56.43
74466;BME280;62916;50.044;15.938;2023-04-01T02:40:49;97438.89;;;19.31;56.46
74466;BME280;62916;50.044;15.938;2023-04-01T02:43:20;97444.60;;;19.29;56.37
74466;BME280;62916;50.044;15.938;2023-04-01T02:45:51;97443.85;;;19.28;56.54
74466;BME280;62916;50.044;15.938;2023-04-01T02:48:22;97449.09;;;19.26;56.52
74466;BME280;62916;50.044;15.938;2023-04-01T02:50:53;97450.91;;;19.26;56.61
74466;BME280;62916;50.044;15.938;2023-04-01T02:53:25;97449.94;;;19.25;56.69
74466;BME280;62916;50.044;15.938;2023-04-01T02:55:56;97453.33;;;19.23;56.67
74466;BME280;62916;50.044;15.938;2023-04-01T02:58:26;97459.89;;;19.22;56.72
74466;BME280;62916;50.044;15.938;2023-04-01T03:00:57;97457.66;;;19.20;56.66
74466;BME280;62916;50.044;15.938;2023-04-01T03:03:28;97456.73;;;19.19;56.83
74466;BME280;62916;50.044;15.938;2023-04-01T03:06:01;97460.55;;;19.18;56.69
74466;BME280;62916;50.044;15.938;2023-04-01T03:08:35;97460.20;;;19.17;56.76
74466;BME280;62916;50.044;15.938;2023-04-01T03:11:06;97463.45;;;19.16;56.89
74466;BME280;62916;50.044;15.938;2023-04-01T03:13:37;97465.34;;;19.15;57.04
74466;BME280;62916;50.044;15.938;2023-04-01T03:16:09;97465.27;;;19.15;56.99
74466;BME280;62916;50.044;15.938;2023-04-01T03:18:40;97465.43;;;19.15;57.05
74466;BME280;62916;50.044;15.938;2023-04-01T03:21:19;97465.73;;;19.15;57.01
74466;BME280;62916;50.044;15.938;2023-04-01T03:23:51;97462.93;;;19.12;57.07
74466;BME280;62916;50.044;15.938;2023-04-01T03:26:25;97468.66;;;19.13;57.01
74466;BME280;62916;50.044;15.938;2023-04-01T03:28:57;97467.89;;;19.11;57.11
74466;BME280;62916;50.044;15.938;2023-04-01T03:31:28;97466.05;;;19.09;57.08
74466;BME280;62916;50.044;15.938;2023-04-01T03:33:58;97471.98;;;19.09;57.19
74466;BME280;62916;50.044;15.938;2023-04-01T03:36:29;97472.65;;;19.08;57.06
74466;BME280;62916;50.044;15.938;2023-04-01T03:39:03;97478.13;;;19.06;57.21
74466;BME280;62916;50.044;15.938;2023-04-01T03:41:36;97480.65;;;19.05;57.26
74466;BME280;62916;50.044;15.938;2023-04-01T03:44:07;97484.23;;;19.03;57.23
74466;BME280;62916;50.044;15.938;2023-04-01T03:46:38;97486.61;;;19.02;57.29
74466;BME280;62916;50.044;15.938;2023-04-01T03:49:10;97485.54;;;18.99;57.26
74466;BME280;62916;50.044;15.938;2023-04-01T03:51:43;97490.88;;;19.00;57.26
74466;BME280;62916;50.044;15.938;2023-04-01T03:54:13;97489.75;;;19.00;57.38
74466;BME280;62916;50.044;15.938;2023-04-01T03:56:44;97489.59;;;18.98;57.48
74466;BME280;62916;50.044;15.938;2023-04-01T03:59:15;97493.05;;;18.98;57.42
74466;BME280;62916;50.044;15.938;2023-04-01T04:01:47;97490.77;;;18.98;57.44
74466;BME280;62916;50.044;15.938;2023-04-01T04:04:18;97490.17;;;18.97;57.40
74466;BME280;62916;50.044;15.938;2023-04-01T04:06:49;97493.80;;;18.95;57.49
74466;BME280;62916;50.044;15.938;2023-04-01T04:09:20;97494.98;;;18.94;57.53
74466;BME280;62916;50.044;15.938;2023-04-01T04:11:51;97495.27;;;18.93;57.46
74466;BME280;62916;50.044;15.938;2023-04-01T04:14:22;97494.61;;;18.92;57.56
74466;BME280;62916;50.044;15.938;2023-04-01T04:16:53;97499.88;;;18.91;57.46
74466;BME280;62916;50.044;15.938;2023-04-01T04:19:24;97496.41;;;18.91;57.58
74466;BME280;62916;50.044;15.938;2023-04-01T04:21:54;97495.99;;;18.90;57.56
74466;BME280;62916;50.044;15.938;2023-04-01T04:24:25;97499.27;;;18.90;57.55
74466;BME280;62916;50.044;15.938;2023-04-01T04:26:56;97501.71;;;18.89;57.53
74466;BME280;62916;50.044;15.938;2023-04-01T04:29:27;97499.09;;;18.87;57.65
74466;BME280;62916;50.044;15.938;2023-04-01T04:31:58;97497.81;;;18.86;57.49
74466;BME280;62916;50.044;15.938;2023-04-01T04:34:29;97501.27;;;18.88;57.66
74466;BME280;62916;50.044;15.938;2023-04-01T04:37:00;97503.81;;;18.87;57.56
74466;BME280;62916;50.044;15.938;2023-04-01T04:39:31;97502.98;;;18.86;57.57
74466;BME280;62916;50.044;15.938;2023-04-01T04:42:01;97505.38;;;18.86;57.62
74466;BME280;62916;50.044;15.938;2023-04-01T04:44:32;97506.52;;;18.85;57.61
74466;BME280;62916;50.044;15.938;2023-04-01T04:47:03;97506.34;;;18.84;57.68
74466;BME280;62916;50.044;15.938;2023-04-01T04:49:35;97505.66;;;18.82;57.72
74466;BME280;62916;50.044;15.938;2023-04-01T04:52:05;97508.98;;;18.84;57.62
74466;BME280;62916;50.044;15.938;2023-04-01T04:54:36;97508.99;;;18.84;57.63
74466;BME280;62916;50.044;15.938;2023-04-01T04:57:07;97505.45;;;18.83;57.79
74466;BME280;62916;50.044;15.938;2023-04-01T04:59:38;97510.22;;;18.84;57.73
74466;BME280;62916;50.044;15.938;2023-04-01T05:02:08;97508.16;;;18.85;57.69
74466;BME280;62916;50.044;15.938;2023-04-01T05:04:39;97510.77;;;18.86;57.74
74466;BME280;62916;50.044;15.938;2023-04-01T05:07:10;97514.48;;;18.87;57.76
74466;BME280;62916;50.044;15.938;2023-04-01T05:09:41;97518.21;;;18.88;57.67
74466;BME280;62916;50.044;15.938;2023-04-01T05:12:12;97520.19;;;18.89;57.71
74466;BME280;62916;50.044;15.938;2023-04-01T05:14:43;97519.02;;;18.90;57.66
74466;BME280;62916;50.044;15.938;2023-04-01T05:17:14;97520.36;;;18.92;57.58
74466;BME280;62916;50.044;15.938;2023-04-01T05:19:44;97517.14;;;18.94;57.65
74466;BME280;62916;50.044;15.938;2023-04-01T05:22:15;97517.27;;;18.98;57.87
74466;BME280;62916;50.044;15.938;2023-04-01T05:24:46;97518.92;;;19.01;57.62
74466;BME280;62916;50.044;15.938;2023-04-01T05:27:17;97522.52;;;19.03;57.65
74466;BME280;62916;50.044;15.938;2023-04-01T05:29:48;97523.27;;;19.07;57.61
74466;BME280;62916;50.044;15.938;2023-04-01T05:32:19;97525.02;;;19.08;57.69
74466;BME280;62916;50.044;15.938;2023-04-01T05:34:51;97530.55;;;19.10;57.73
74466;BME280;62916;50.044;15.938;2023-04-01T05:37:22;97532.05;;;19.12;57.71
74466;BME280;62916;50.044;15.938;2023-04-01T05:39:53;97525.98;;;19.10;57.47
74466;BME280;62916;50.044;15.938;2023-04-01T05:42:24;97530.61;;;19.15;57.60
74466;BME280;62916;50.044;15.938;2023-04-01T05:44:55;97531.86;;;19.16;57.74
74466;BME280;62916;50.044;15.938;2023-04-01T05:47:26;97531.77;;;19.18;57.81
74466;BME280;62916;50.044;15.938;2023-04-01T05:49:56;97531.49;;;19.19;57.73
74466;BME280;62916;50.044;15.938;2023-04-01T05:52:27;97534.29;;;19.21;57.74
74466;BME280;62916;50.044;15.938;2023-04-01T05:54:58;97532.23;;;19.22;57.71
74466;BME280;62916;50.044;15.938;2023-04-01T05:57:29;97534.33;;;19.22;57.67
74466;BME280;62916;50.044;15.938;2023-04-01T06:00:00;97537.33;;;19.23;57.69
74466;BME280;62916;50.044;15.938;2023-04-01T06:02:31;97540.23;;;19.23;57.73
74466;BME280;62916;50.044;15.938;2023-04-01T06:05:13;97536.66;;;19.22;57.76
74466;BME280;62916;50.044;15.938;2023-04-01T06:07:45;97538.77;;;19.23;57.64
74466;BME280;62916;50.044;15.938;2023-04-01T06:10:18;97541.61;;;19.24;57.72
74466;BME280;62916;50.044;15.938;2023-04-01T06:12:59;97541.61;;;19.24;57.74
74466;BME280;62916;50.044;15.938;2023-04-01T06:15:44;97543.25;;;19.25;57.80
74466;BME280;62916;50.044;15.938;2023-04-01T06:18:44;97547.77;;;19.26;57.85
74466;BME280;62916;50.044;15.938;2023-04-01T06:21:48;97552.66;;;19.25;57.78
74466;BME280;62916;50.044;15.938;2023-04-01T06:24:41;97554.19;;;19.25;57.75
74466;BME280;62916;50.044;15.938;2023-04-01T06:27:16;97550.35;;;19.24;57.68
74466;BME280;62916;50.044;15.938;2023-04-01T06:30:08;97557.00;;;19.26;57.73
74466;BME280;62916;50.044;15.938;2023-04-01T06:32:56;97557.26;;;19.26;57.69
74466;BME280;62916;50.044;15.938;2023-04-01T06:35:58;97557.19;;;19.26;57.72
74466;BME280;62916;50.044;15.938;2023-04-01T06:38:51;97559.23;;;19.27;57.77
74466;BME280;62916;50.044;15.938;2023-04-01T06:44:25;97558.93;;;19.28;57.71
74466;BME280;62916;50.044;15.938;2023-04-01T06:47:04;97558.83;;;19.27;57.54
74466;BME280;62916;50.044;15.938;2023-04-01T06:49:48;97563.39;;;19.27;57.76
74466;BME280;62916;50.044;15.938;2023-04-01T06:52:26;97559.66;;;19.28;57.86
74466;BME280;62916;50.044;15.938;2023-04-01T06:55:04;97565.34;;;19.27;57.77
74466;BME280;62916;50.044;15.938;2023-04-01T06:57:42;97563.55;;;19.25;57.66
74466;BME280;62916;50.044;15.938;2023-04-01T07:00:15;97569.89;;;19.27;57.76
74466;BME280;62916;50.044;15.938;2023-04-01T07:02:54;97567.80;;;19.24;58.17
74466;BME280;62916;50.044;15.938;2023-04-01T07:05:32;97569.33;;;19.27;57.94
74466;BME280;62916;50.044;15.938;2023-04-01T07:08:08;97573.65;;;19.26;57.96
74466;BME280;62916;50.044;15.938;2023-04-01T07:10:45;97577.21;;;19.25;57.90
74466;BME280;62916;50.044;15.938;2023-04-01T07:13:21;97574.69;;;19.24;57.86
74466;BME280;62916;50.044;15.938;2023-04-01T07:15:58;97577.88;;;19.23;57.82
74466;BME280;62916;50.044;15.938;2023-04-01T07:18:34;97580.42;;;19.22;57.74
74466;BME280;62916;50.044;15.938;2023-04-01T07:21:13;97579.80;;;19.20;57.75
74466;BME280;62916;50.044;15.938;2023-04-01T07:23:50;97582.52;;;19.18;57.69
74466;BME280;62916;50.044;15.938;2023-04-01T07:26:24;97583.36;;;19.17;57.70
74466;BME280;62916;50.044;15.938;2023-04-01T07:28:56;97585.49;;;19.16;57.60
74466;BME280;62916;50.044;15.938;2023-04-01T07:31:38;97583.80;;;19.13;57.77
74466;BME280;62916;50.044;15.938;2023-04-01T07:34:16;97589.09;;;19.13;57.66
74466;BME280;62916;50.044;15.938;2023-04-01T07:36:56;97590.77;;;19.12;57.56
74466;BME280;62916;50.044;15.938;2023-04-01T07:39:39;97594.02;;;19.11;57.70
74466;BME280;62916;50.044;15.938;2023-04-01T07:42:18;97597.79;;;19.11;57.55
74466;BME280;62916;50.044;15.938;2023-04-01T07:45:01;97592.30;;;19.08;57.67
74466;BME280;62916;50.044;15.938;2023-04-01T07:47:43;97598.25;;;19.08;57.45
74466;BME280;62916;50.044;15.938;2023-04-01T07:50:21;97600.14;;;19.07;57.50
74466;BME280;62916;50.044;15.938;2023-04-01T07:53:02;97597.92;;;19.06;57.46
74466;BME280;62916;50.044;15.938;2023-04-01T07:55:42;97595.80;;;19.05;57.46
74466;BME280;62916;50.044;15.938;2023-04-01T07:58:19;97592.38;;;19.04;57.30
74466;BME280;62916;50.044;15.938;2023-04-01T08:00:56;97595.23;;;19.03;57.38
74466;BME280;62916;50.044;15.938;2023-04-01T08:03:48;97598.64;;;19.04;57.27
74466;BME280;62916;50.044;15.938;2023-04-01T08:06:27;97602.66;;;19.06;57.32
74466;BME280;62916;50.044;15.938;2023-04-01T08:09:08;97606.17;;;19.08;57.34
74466;BME280;62916;50.044;15.938;2023-04-01T08:11:56;97610.10;;;19.10;57.30
74466;BME280;62916;50.044;15.938;2023-04-01T08:14:39;97611.77;;;19.09;57.36
74466;BME280;62916;50.044;15.938;2023-04-01T08:17:18;97617.20;;;19.10;57.44
74466;BME280;62916;50.044;15.938;2023-04-01T08:20:05;97613.46;;;19.11;57.36
74466;BME280;62916;50.044;15.938;2023-04-01T08:22:41;97612.78;;;19.13;57.44
74466;BME280;62916;50.044;15.938;2023-04-01T08:25:18;97612.31;;;19.14;57.41
74466;BME280;62916;50.044;15.938;2023-04-01T08:27:55;97608.59;;;19.16;57.48
74466;BME280;62916;50.044;15.938;2023-04-01T08:30:31;97613.15;;;19.17;57.37
74466;BME280;62916;50.044;15.938;2023-04-01T08:33:11;97605.95;;;19.17;57.44
74466;BME280;62916;50.044;15.938;2023-04-01T08:35:49;97608.90;;;19.19;57.44
74466;BME280;62916;50.044;15.938;2023-04-01T08:38:26;97609.92;;;19.20;57.29
74466;BME280;62916;50.044;15.938;2023-04-01T08:41:06;97612.71;;;19.22;57.41
74466;BME280;62916;50.044;15.938;2023-04-01T08:46:48;97613.63;;;19.28;57.33
74466;BME280;62916;50.044;15.938;2023-04-01T08:49:40;97614.10;;;19.30;57.37
74466;BME280;62916;50.044;15.938;2023-04-01T08:52:23;97616.88;;;19.31;57.25
74466;BME280;62916;50.044;15.938;2023-04-01T08:55:25;97615.09;;;19.35;57.42
74466;BME280;62916;50.044;15.938;2023-04-01T08:58:32;97622.27;;;19.38;57.25
74466;BME280;62916;50.044;15.938;2023-04-01T09:01:19;97620.83;;;19.40;57.24
74466;BME280;62916;50.044;15.938;2023-04-01T09:04:16;97624.28;;;19.42;57.21
74466;BME280;62916;50.044;15.938;2023-04-01T09:07:02;97628.09;;;19.44;57.16
74466;BME280;62916;50.044;15.938;2023-04-01T09:09:48;97628.81;;;19.46;57.17
74466;BME280;62916;50.044;15.938;2023-04-01T09:18:51;97633.15;;;19.46;57.08
74466;BME280;62916;50.044;15.938;2023-04-01T09:24:41;97637.09;;;19.46;56.88
74466;BME280;62916;50.044;15.938;2023-04-01T09:27:29;97638.53;;;19.46;56.84
74466;BME280;62916;50.044;15.938;2023-04-01T09:30:27;97633.91;;;19.45;56.74
74466;BME280;62916;50.044;15.938;2023-04-01T09:36:11;97633.88;;;19.44;56.72
74466;BME280;62916;50.044;15.938;2023-04-01T09:38:57;97635.14;;;19.43;56.58
74466;BME280;62916;50.044;15.938;2023-04-01T09:41:31;97641.33;;;19.43;56.53
74466;BME280;62916;50.044;15.938;2023-04-01T09:44:06;97639.66;;;19.42;56.61
74466;BME280;62916;50.044;15.938;2023-04-01T09:46:56;97647.06;;;19.42;56.53
74466;BME280;62916;50.044;15.938;2023-04-01T09:49:50;97643.67;;;19.42;56.41
74466;BME280;62916;50.044;15.938;2023-04-01T09:52:34;97648.08;;;19.41;56.36
74466;BME280;62916;50.044;15.938;2023-04-01T09:55:39;97646.46;;;19.41;56.48
74466;BME280;62916;50.044;15.938;2023-04-01T09:58:46;97648.88;;;19.41;56.45
74466;BME280;62916;50.044;15.938;2023-04-01T10:07:29;97650.71;;;19.42;56.47
74466;BME280;62916;50.044;15.938;2023-04-01T10:10:32;97646.83;;;19.45;56.56
74466;BME280;62916;50.044;15.938;2023-04-01T10:13:26;97645.38;;;19.47;56.56
74466;BME280;62916;50.044;15.938;2023-04-01T10:16:27;97650.52;;;19.48;56.68
74466;BME280;62916;50.044;15.938;2023-04-01T10:19:40;97651.68;;;19.49;56.66
74466;BME280;62916;50.044;15.938;2023-04-01T10:22:42;97647.98;;;19.49;56.69
74466;BME280;62916;50.044;15.938;2023-04-01T10:28:37;97644.34;;;19.56;56.71
74466;BME280;62916;50.044;15.938;2023-04-01T10:37:36;97642.48;;;19.62;56.63
74466;BME280;62916;50.044;15.938;2023-04-01T10:40:37;97635.14;;;19.63;56.66
74466;BME280;62916;50.044;15.938;2023-04-01T10:49:55;97634.65;;;19.73;56.67
74466;BME280;62916;50.044;15.938;2023-04-01T10:53:16;97629.69;;;19.76;56.56
74466;BME280;62916;50.044;15.938;2023-04-01T10:59:18;97631.55;;;19.79;56.69
74466;BME280;62916;50.044;15.938;2023-04-01T11:08:43;97629.34;;;19.84;56.41
74466;BME280;62916;50.044;15.938;2023-04-01T11:17:44;97631.23;;;19.91;56.19
74466;BME280;62916;50.044;15.938;2023-04-01T11:23:46;97631.04;;;19.90;55.84
74466;BME280;62916;50.044;15.938;2023-04-01T11:26:46;97625.73;;;19.90;55.92
74466;BME280;62916;50.044;15.938;2023-04-01T11:29:38;97624.31;;;19.91;55.74
74466;BME280;62916;50.044;15.938;2023-04-01T11:32:39;97621.66;;;19.91;55.47
74466;BME280;62916;50.044;15.938;2023-04-01T11:35:28;97617.47;;;19.93;55.59
74466;BME280;62916;50.044;15.938;2023-04-01T11:38:09;97617.31;;;20.01;55.61
74466;BME280;62916;50.044;15.938;2023-04-01T11:40:47;97615.10;;;20.09;55.43
74466;BME280;62916;50.044;15.938;2023-04-01T11:43:30;97610.89;;;20.18;55.44
74466;BME280;62916;50.044;15.938;2023-04-01T11:46:11;97609.61;;;20.27;55.34
74466;BME280;62916;50.044;15.938;2023-04-01T11:48:54;97611.64;;;20.30;54.79
74466;BME280;62916;50.044;15.938;2023-04-01T11:54:41;97639.44;;;20.38;54.89
74466;BME280;62916;50.044;15.938;2023-04-01T11:57:38;97653.11;;;20.43;54.85
74466;BME280;62916;50.044;15.938;2023-04-01T12:00:32;97654.52;;;20.47;54.88
74466;BME280;62916;50.044;15.938;2023-04-01T12:06:04;97642.04;;;20.57;54.73
74466;BME280;62916;50.044;15.938;2023-04-01T12:08:43;97636.31;;;20.62;54.81
74466;BME280;62916;50.044;15.938;2023-04-01T12:11:23;97630.80;;;20.66;54.67
74466;BME280;62916;50.044;15.938;2023-04-01T12:14:05;97631.80;;;20.70;54.76
74466;BME280;62916;50.044;15.938;2023-04-01T12:16:51;97634.26;;;20.74;54.72
74466;BME280;62916;50.044;15.938;2023-04-01T12:19:35;97628.38;;;20.77;54.66
74466;BME280;62916;50.044;15.938;2023-04-01T12:22:26;97627.52;;;20.80;54.60
74466;BME280;62916;50.044;15.938;2023-04-01T12:25:03;97626.80;;;20.83;54.55
74466;BME280;62916;50.044;15.938;2023-04-01T12:27:43;97626.35;;;20.84;54.73
74466;BME280;62916;50.044;15.938;2023-04-01T12:30:36;97629.66;;;20.88;54.62
74466;BME280;62916;50.044;15.938;2023-04-01T12:33:34;97632.16;;;20.90;54.73
74466;BME280;62916;50.044;15.938;2023-04-01T12:36:18;97645.91;;;20.94;54.60
74466;BME280;62916;50.044;15.938;2023-04-01T12:39:06;97652.45;;;20.99;54.63
74466;BME280;62916;50.044;15.938;2023-04-01T12:41:47;97654.36;;;21.03;54.38
74466;BME280;62916;50.044;15.938;2023-04-01T12:44:49;97653.03;;;21.08;54.57
74466;BME280;62916;50.044;15.938;2023-04-01T12:47:38;97649.80;;;21.13;54.46
74466;BME280;62916;50.044;15.938;2023-04-01T12:50:36;97646.71;;;21.17;54.37
74466;BME280;62916;50.044;15.938;2023-04-01T12:53:21;97645.54;;;21.23;54.36
74466;BME280;62916;50.044;15.938;2023-04-01T12:55:59;97646.57;;;21.29;54.41
74466;BME280;62916;50.044;15.938;2023-04-01T13:02:02;97644.90;;;21.39;54.29
74466;BME280;62916;50.044;15.938;2023-04-01T13:05:06;97651.48;;;21.43;54.00
74466;BME280;62916;50.044;15.938;2023-04-01T13:07:57;97652.39;;;21.47;53.69
74466;BME280;62916;50.044;15.938;2023-04-01T13:10:48;97654.93;;;21.45;53.22
74466;BME280;62916;50.044;15.938;2023-04-01T13:13:47;97654.95;;;21.41;52.78
74466;BME280;62916;50.044;15.938;2023-04-01T13:16:25;97651.34;;;21.44;53.08
74466;BME280;62916;50.044;15.938;2023-04-01T13:19:03;97654.09;;;21.47;52.96
74466;BME280;62916;50.044;15.938;2023-04-01T13:21:47;97654.48;;;21.50;52.86
74466;BME280;62916;50.044;15.938;2023-04-01T13:24:35;97655.41;;;21.54;52.92
74466;BME280;62916;50.044;15.938;2023-04-01T13:27:16;97657.05;;;21.58;53.08
74466;BME280;62916;50.044;15.938;2023-04-01T13:29:59;97660.08;;;21.63;53.15
74466;BME280;62916;50.044;15.938;2023-04-01T13:32:36;97658.36;;;21.69;53.07
74466;BME280;62916;50.044;15.938;2023-04-01T13:35:28;97657.52;;;21.73;53.03
74466;BME280;62916;50.044;15.938;2023-04-01T13:38:19;97656.51;;;21.78;53.04
74466;BME280;62916;50.044;15.938;2023-04-01T13:41:01;97654.69;;;21.80;53.16
74466;BME280;62916;50.044;15.938;2023-04-01T13:43:39;97653.54;;;21.84;53.13
74466;BME280;62916;50.044;15.938;2023-04-01T13:46:32;97657.09;;;21.88;53.30
74466;BME280;62916;50.044;15.938;2023-04-01T13:49:31;97658.41;;;21.90;53.00
74466;BME280;62916;50.044;15.938;2023-04-01T13:55:27;97663.88;;;21.95;52.85
74466;BME280;62916;50.044;15.938;2023-04-01T13:58:27;97660.81;;;21.97;53.00
74466;BME280;62916;50.044;15.938;2023-04-01T14:01:10;97657.02;;;22.00;53.10
74466;BME280;62916;50.044;15.938;2023-04-01T14:03:55;97661.95;;;22.03;52.78
74466;BME280;62916;50.044;15.938;2023-04-01T14:06:37;97660.85;;;22.08;52.89
74466;BME280;62916;50.044;15.938;2023-04-01T14:09:24;97655.80;;;22.13;52.85
74466;BME280;62916;50.044;15.938;2023-04-01T14:12:04;97654.05;;;22.16;52.76
74466;BME280;62916;50.044;15.938;2023-04-01T14:14:57;97656.05;;;22.20;52.75
74466;BME280;62916;50.044;15.938;2023-04-01T14:17:45;97653.22;;;22.23;52.76
74466;BME280;62916;50.044;15.938;2023-04-01T14:20:37;97648.78;;;22.25;52.75
74466;BME280;62916;50.044;15.938;2023-04-01T14:23:29;97650.88;;;22.28;52.71
74466;BME280;62916;50.044;15.938;2023-04-01T14:29:24;97650.09;;;22.33;52.59
74466;BME280;62916;50.044;15.938;2023-04-01T14:32:09;97650.08;;;22.35;52.62
74466;BME280;62916;50.044;15.938;2023-04-01T14:34:58;97651.77;;;22.39;52.51
74466;BME280;62916;50.044;15.938;2023-04-01T14:40:37;97649.11;;;22.44;52.51
74466;BME280;62916;50.044;15.938;2023-04-01T14:43:35;97651.39;;;22.45;52.34
74466;BME280;62916;50.044;15.938;2023-04-01T14:46:48;97656.06;;;22.47;52.55
74466;BME280;62916;50.044;15.938;2023-04-01T14:49:24;97654.16;;;22.48;52.34
74466;BME280;62916;50.044;15.938;2023-04-01T14:52:10;97647.64;;;22.50;52.38
74466;BME280;62916;50.044;15.938;2023-04-01T14:54:44;97647.60;;;22.51;52.10
74466;BME280;62916;50.044;15.938;2023-04-01T14:57:20;97645.98;;;22.52;52.23
74466;BME280;62916;50.044;15.938;2023-04-01T14:59:59;97648.46;;;22.54;52.27
74466;BME280;62916;50.044;15.938;2023-04-01T15:02:44;97656.17;;;22.56;52.16
74466;BME280;62916;50.044;15.938;2023-04-01T15:05:30;97655.70;;;22.56;52.15
74466;BME280;62916;50.044;15.938;2023-04-01T15:08:27;97654.38;;;22.55;51.88
74466;BME280;62916;50.044;15.938;2023-04-01T15:11:19;97656.31;;;22.54;52.20
74466;BME280;62916;50.044;15.938;2023-04-01T15:14:19;97653.68;;;22.53;51.40
74466;BME280;62916;50.044;15.938;2023-04-01T15:17:04;97658.85;;;22.49;51.84